sensor_id;sensor_type;location;lat;lon;timestamp;temperature;humidity
7046;DHT22;3564;53.326;10.356;2023-04-29T00:00:36;13.80;99.90
7046;DHT22;3564;53.326;10.356;2023-04-29T00:03:03;13.80;99.90
7046;DHT22;3564;53.326;10.356;2023-04-29T00:05:28;13.80;99.90
7046;DHT22;3564;53.326;10.356;2023-04-29T00:07:54;13.80;99.90
7046;DHT22;3564;53.326;10.356;2023-04-29T00:10:19;13.70;99.90
7046;DHT22;3564;53.326;10.356;2023-04-29T00:12:45;13.70;99.90
7046;DHT22;3564;53.326;10.356;2023-04-29T00:15:10;13.70;99.90
7046;DHT22;3564;53.326;10.356;2023-04-29T00:17:36;13.70;99.90
7046;DHT22;3564;53.326;10.356;2023-04-29T00:20:02;13.70;99.90
7046;DHT22;3564;53.326;10.356;2023-04-29T00:22:28;13.70;99.90
7046;DHT22;3564;53.326;10.356;2023-04-29T00:24:54;13.60;99.90
7046;DHT22;3564;53.326;10.356;2023-04-29T00:27:20;13.60;99.90
7046;DHT22;3564;53.326;10.356;2023-04-29T00:29:45;13.60;99.90
7046;DHT22;3564;53.326;10.356;2023-04-29T00:32:11;13.60;99.90
7046;DHT22;3564;53.326;10.356;2023-04-29T00:34:37;13.60;99.90
7046;DHT22;3564;53.326;10.356;2023-04-29T00:37:02;13.60;99.90
7046;DHT22;3564;53.326;10.356;2023-04-29T00:39:28;13.60;99.90
7046;DHT22;3564;53.326;10.356;2023-04-29T00:41:54;13.50;99.90
7046;DHT22;3564;53.326;10.356;2023-04-29T00:44:19;13.50;99.90
7046;DHT22;3564;53.326;10.356;2023-04-29T00:46:45;13.50;99.90
7046;DHT22;3564;53.326;10.356;2023-04-29T00:49:12;13.50;99.90
7046;DHT22;3564;53.326;10.356;2023-04-29T00:51:40;13.50;99.90
7046;DHT22;3564;53.326;10.356;2023-04-29T00:54:07;13.50;99.90
7046;DHT22;3564;53.326;10.356;2023-04-29T00:56:34;13.50;99.90
7046;DHT22;3564;53.326;10.356;2023-04-29T00:59:01;13.50;99.90
7046;DHT22;3564;53.326;10.356;2023-04-29T01:01:29;13.40;99.90
7046;DHT22;3564;53.326;10.356;2023-04-29T01:03:56;13.40;99.90
7046;DHT22;3564;53.326;10.356;2023-04-29T01:14:33;13.40;99.90
7046;DHT22;3564;53.326;10.356;2023-04-29T01:17:05;13.40;99.90
7046;DHT22;3564;53.326;10.356;2023-04-29T01:19:47;13.40;99.90
7046;DHT22;3564;53.326;10.356;2023-04-29T01:22:14;13.30;99.90
7046;DHT22;3564;53.326;10.356;2023-04-29T01:24:42;13.30;99.90
7046;DHT22;3564;53.326;10.356;2023-04-29T01:27:22;13.30;99.90
7046;DHT22;3564;53.326;10.356;2023-04-29T01:32:57;13.30;99.90
7046;DHT22;3564;53.326;10.356;2023-04-29T01:38:15;13.30;99.90
7046;DHT22;3564;53.326;10.356;2023-04-29T01:41:05;13.30;99.90
7046;DHT22;3564;53.326;10.356;2023-04-29T01:43:36;13.30;99.90
7046;DHT22;3564;53.326;10.356;2023-04-29T01:46:05;13.20;99.90
7046;DHT22;3564;53.326;10.356;2023-04-29T01:48:33;13.30;99.90
7046;DHT22;3564;53.326;10.356;2023-04-29T01:50:58;13.30;99.90
7046;DHT22;3564;53.326;10.356;2023-04-29T01:53:24;13.20;99.90
7046;DHT22;3564;53.326;10.356;2023-04-29T01:55:49;13.30;99.90
7046;DHT22;3564;53.326;10.356;2023-04-29T01:58:15;13.30;99.90
7046;DHT22;3564;53.326;10.356;2023-04-29T02:00:41;13.20;99.90
7046;DHT22;3564;53.326;10.356;2023-04-29T02:03:07;13.30;99.90
7046;DHT22;3564;53.326;10.356;2023-04-29T02:05:32;13.30;99.90
7046;DHT22;3564;53.326;10.356;2023-04-29T02:07:59;13.20;99.90
7046;DHT22;3564;53.326;10.356;2023-04-29T02:10:25;13.20;99.90
7046;DHT22;3564;53.326;10.356;2023-04-29T02:12:52;13.30;99.90
7046;DHT22;3564;53.326;10.356;2023-04-29T02:15:17;13.30;99.90
7046;DHT22;3564;53.326;10.356;2023-04-29T02:17:43;13.30;99.90
7046;DHT22;3564;53.326;10.356;2023-04-29T02:20:10;13.30;99.90
7046;DHT22;3564;53.326;10.356;2023-04-29T02:22:35;13.30;99.90
7046;DHT22;3564;53.326;10.356;2023-04-29T02:25:01;13.30;99.90
7046;DHT22;3564;53.326;10.356;2023-04-29T02:27:27;13.30;99.90
7046;DHT22;3564;53.326;10.356;2023-04-29T02:29:52;13.30;99.90
7046;DHT22;3564;53.326;10.356;2023-04-29T02:32:18;13.30;99.90
7046;DHT22;3564;53.326;10.356;2023-04-29T02:34:45;13.20;99.90
7046;DHT22;3564;53.326;10.356;2023-04-29T02:37:11;13.30;99.90
7046;DHT22;3564;53.326;10.356;2023-04-29T02:39:37;13.30;99.90
7046;DHT22;3564;53.326;10.356;2023-04-29T02:42:02;13.30;99.90
7046;DHT22;3564;53.326;10.356;2023-04-29T02:44:28;13.30;99.90
7046;DHT22;3564;53.326;10.356;2023-04-29T02:46:55;13.30;99.90
7046;DHT22;3564;53.326;10.356;2023-04-29T02:49:20;13.30;99.90
7046;DHT22;3564;53.326;10.356;2023-04-29T02:51:46;13.30;99.90
7046;DHT22;3564;53.326;10.356;2023-04-29T02:54:14;13.30;99.90
7046;DHT22;3564;53.326;10.356;2023-04-29T02:56:41;13.30;99.90
7046;DHT22;3564;53.326;10.356;2023-04-29T02:59:07;13.30;99.90
7046;DHT22;3564;53.326;10.356;2023-04-29T03:01:32;13.30;99.90
7046;DHT22;3564;53.326;10.356;2023-04-29T03:03:58;13.30;99.90
7046;DHT22;3564;53.326;10.356;2023-04-29T03:06:25;13.20;99.90
7046;DHT22;3564;53.326;10.356;2023-04-29T03:08:52;13.20;99.90
7046;DHT22;3564;53.326;10.356;2023-04-29T03:11:19;13.20;99.90
7046;DHT22;3564;53.326;10.356;2023-04-29T03:13:44;13.20;99.90
7046;DHT22;3564;53.326;10.356;2023-04-29T03:16:12;13.20;99.90
7046;DHT22;3564;53.326;10.356;2023-04-29T03:18:43;13.20;99.90
7046;DHT22;3564;53.326;10.356;2023-04-29T03:21:09;13.20;99.90
7046;DHT22;3564;53.326;10.356;2023-04-29T03:23:35;13.10;99.90
7046;DHT22;3564;53.326;10.356;2023-04-29T03:26:00;13.10;99.90
7046;DHT22;3564;53.326;10.356;2023-04-29T03:28:27;13.10;99.90
7046;DHT22;3564;53.326;10.356;2023-04-29T03:30:52;13.10;99.90
7046;DHT22;3564;53.326;10.356;2023-04-29T03:33:18;13.10;99.90
7046;DHT22;3564;53.326;10.356;2023-04-29T03:35:43;13.00;99.90
7046;DHT22;3564;53.326;10.356;2023-04-29T03:38:10;13.00;99.90
7046;DHT22;3564;53.326;10.356;2023-04-29T03:40:36;13.00;99.90
7046;DHT22;3564;53.326;10.356;2023-04-29T03:43:01;13.00;99.90
7046;DHT22;3564;53.326;10.356;2023-04-29T03:45:28;13.00;99.90
7046;DHT22;3564;53.326;10.356;2023-04-29T03:47:54;13.00;99.90
7046;DHT22;3564;53.326;10.356;2023-04-29T03:50:21;13.00;99.90
7046;DHT22;3564;53.326;10.356;2023-04-29T03:52:47;13.00;99.90
7046;DHT22;3564;53.326;10.356;2023-04-29T03:55:12;13.00;99.90
7046;DHT22;3564;53.326;10.356;2023-04-29T03:57:38;13.00;99.90
7046;DHT22;3564;53.326;10.356;2023-04-29T04:00:05;13.00;99.90
7046;DHT22;3564;53.326;10.356;2023-04-29T04:02:31;13.00;99.90
7046;DHT22;3564;53.326;10.356;2023-04-29T04:04:57;12.90;99.90
7046;DHT22;3564;53.326;10.356;2023-04-29T04:07:23;12.90;99.90
7046;DHT22;3564;53.326;10.356;2023-04-29T04:09:49;12.90;99.90
7046;DHT22;3564;53.326;10.356;2023-04-29T04:12:14;12.90;99.90
7046;DHT22;3564;53.326;10.356;2023-04-29T04:14:40;12.90;99.90
7046;DHT22;3564;53.326;10.356;2023-04-29T04:17:05;12.90;99.90
7046;DHT22;3564;53.326;10.356;2023-04-29T04:19:31;12.90;99.90
7046;DHT22;3564;53.326;10.356;2023-04-29T04:21:58;12.90;99.90
7046;DHT22;3564;53.326;10.356;2023-04-29T04:24:23;12.80;99.90
7046;DHT22;3564;53.326;10.356;2023-04-29T04:26:49;12.80;99.90
7046;DHT22;3564;53.326;10.356;2023-04-29T04:29:14;12.80;99.90
7046;DHT22;3564;53.326;10.356;2023-04-29T04:31:40;12.80;99.90
7046;DHT22;3564;53.326;10.356;2023-04-29T04:34:06;12.80;99.90
7046;DHT22;3564;53.326;10.356;2023-04-29T04:36:31;12.80;99.90
7046;DHT22;3564;53.326;10.356;2023-04-29T04:38:57;12.80;99.90
7046;DHT22;3564;53.326;10.356;2023-04-29T04:41:23;12.80;99.90
7046;DHT22;3564;53.326;10.356;2023-04-29T04:43:48;12.70;99.90
7046;DHT22;3564;53.326;10.356;2023-04-29T04:46:15;12.70;99.90
7046;DHT22;3564;53.326;10.356;2023-04-29T04:48:42;12.80;99.90
7046;DHT22;3564;53.326;10.356;2023-04-29T04:51:08;12.70;99.90
7046;DHT22;3564;53.326;10.356;2023-04-29T04:53:34;12.80;99.90
7046;DHT22;3564;53.326;10.356;2023-04-29T04:56:01;12.80;99.90
7046;DHT22;3564;53.326;10.356;2023-04-29T04:58:27;12.80;99.90
7046;DHT22;3564;53.326;10.356;2023-04-29T05:00:52;12.80;99.90
7046;DHT22;3564;53.326;10.356;2023-04-29T05:03:18;12.80;99.90
7046;DHT22;3564;53.326;10.356;2023-04-29T05:05:43;12.80;99.90
7046;DHT22;3564;53.326;10.356;2023-04-29T05:08:09;12.80;99.90
7046;DHT22;3564;53.326;10.356;2023-04-29T05:10:35;12.90;99.90
7046;DHT22;3564;53.326;10.356;2023-04-29T05:13:01;12.90;99.90
7046;DHT22;3564;53.326;10.356;2023-04-29T05:15:27;12.90;99.90
7046;DHT22;3564;53.326;10.356;2023-04-29T05:17:52;12.90;99.90
7046;DHT22;3564;53.326;10.356;2023-04-29T05:20:21;12.90;99.90
7046;DHT22;3564;53.326;10.356;2023-04-29T05:22:46;12.90;99.90
7046;DHT22;3564;53.326;10.356;2023-04-29T05:25:12;12.90;99.90
7046;DHT22;3564;53.326;10.356;2023-04-29T05:27:37;12.90;99.90
7046;DHT22;3564;53.326;10.356;2023-04-29T05:30:04;12.90;99.90
7046;DHT22;3564;53.326;10.356;2023-04-29T05:32:30;12.80;99.90
7046;DHT22;3564;53.326;10.356;2023-04-29T05:34:56;12.80;99.90
7046;DHT22;3564;53.326;10.356;2023-04-29T05:37:21;12.80;99.90
7046;DHT22;3564;53.326;10.356;2023-04-29T05:39:47;12.80;99.90
7046;DHT22;3564;53.326;10.356;2023-04-29T05:42:12;12.80;99.90
7046;DHT22;3564;53.326;10.356;2023-04-29T05:44:38;12.80;99.90
7046;DHT22;3564;53.326;10.356;2023-04-29T05:47:04;12.80;99.90
7046;DHT22;3564;53.326;10.356;2023-04-29T05:49:29;12.80;99.90
7046;DHT22;3564;53.326;10.356;2023-04-29T05:51:55;12.80;99.90
7046;DHT22;3564;53.326;10.356;2023-04-29T05:54:21;12.80;99.90
7046;DHT22;3564;53.326;10.356;2023-04-29T05:56:46;12.80;99.90
7046;DHT22;3564;53.326;10.356;2023-04-29T05:59:12;12.80;99.90
7046;DHT22;3564;53.326;10.356;2023-04-29T06:01:37;12.80;99.90
7046;DHT22;3564;53.326;10.356;2023-04-29T06:04:03;12.80;99.90
7046;DHT22;3564;53.326;10.356;2023-04-29T06:06:29;12.90;99.90
7046;DHT22;3564;53.326;10.356;2023-04-29T06:08:54;12.90;99.90
7046;DHT22;3564;53.326;10.356;2023-04-29T06:11:20;12.90;99.90
7046;DHT22;3564;53.326;10.356;2023-04-29T06:13:46;12.90;99.90
7046;DHT22;3564;53.326;10.356;2023-04-29T06:16:12;12.90;99.90
7046;DHT22;3564;53.326;10.356;2023-04-29T06:18:37;12.90;99.90
7046;DHT22;3564;53.326;10.356;2023-04-29T06:21:03;12.90;99.90
7046;DHT22;3564;53.326;10.356;2023-04-29T06:23:29;12.90;99.90
7046;DHT22;3564;53.326;10.356;2023-04-29T06:25:56;13.00;99.90
7046;DHT22;3564;53.326;10.356;2023-04-29T06:28:22;13.00;99.90
7046;DHT22;3564;53.326;10.356;2023-04-29T06:30:47;13.10;99.90
7046;DHT22;3564;53.326;10.356;2023-04-29T06:33:14;13.10;99.90
7046;DHT22;3564;53.326;10.356;2023-04-29T06:35:40;13.20;99.90
7046;DHT22;3564;53.326;10.356;2023-04-29T06:38:06;13.30;99.90
7046;DHT22;3564;53.326;10.356;2023-04-29T06:40:33;13.30;99.90
7046;DHT22;3564;53.326;10.356;2023-04-29T06:42:59;13.30;99.90
7046;DHT22;3564;53.326;10.356;2023-04-29T06:45:24;13.30;99.90
7046;DHT22;3564;53.326;10.356;2023-04-29T06:47:50;13.20;99.90
7046;DHT22;3564;53.326;10.356;2023-04-29T06:50:16;13.20;99.90
7046;DHT22;3564;53.326;10.356;2023-04-29T06:52:42;13.20;99.90
7046;DHT22;3564;53.326;10.356;2023-04-29T06:55:08;13.20;99.90
7046;DHT22;3564;53.326;10.356;2023-04-29T06:57:33;13.30;99.90
7046;DHT22;3564;53.326;10.356;2023-04-29T06:59:59;13.20;99.90
7046;DHT22;3564;53.326;10.356;2023-04-29T07:02:25;13.30;99.90
7046;DHT22;3564;53.326;10.356;2023-04-29T07:04:50;13.30;99.90
7046;DHT22;3564;53.326;10.356;2023-04-29T07:07:16;13.30;99.90
7046;DHT22;3564;53.326;10.356;2023-04-29T07:09:42;13.40;99.90
7046;DHT22;3564;53.326;10.356;2023-04-29T07:12:07;13.30;99.90
7046;DHT22;3564;53.326;10.356;2023-04-29T07:14:33;13.30;99.90
7046;DHT22;3564;53.326;10.356;2023-04-29T07:16:59;13.30;99.90
7046;DHT22;3564;53.326;10.356;2023-04-29T07:19:24;13.40;99.90
7046;DHT22;3564;53.326;10.356;2023-04-29T07:21:50;13.40;99.90
7046;DHT22;3564;53.326;10.356;2023-04-29T07:24:15;13.40;99.90
7046;DHT22;3564;53.326;10.356;2023-04-29T07:26:42;13.50;99.90
7046;DHT22;3564;53.326;10.356;2023-04-29T07:29:09;13.50;99.90
7046;DHT22;3564;53.326;10.356;2023-04-29T07:31:34;13.60;99.90
7046;DHT22;3564;53.326;10.356;2023-04-29T07:34:00;13.70;99.90
7046;DHT22;3564;53.326;10.356;2023-04-29T07:36:26;13.70;99.90
7046;DHT22;3564;53.326;10.356;2023-04-29T07:38:53;13.80;99.80
7046;DHT22;3564;53.326;10.356;2023-04-29T07:41:18;13.90;99.50
7046;DHT22;3564;53.326;10.356;2023-04-29T07:43:44;13.90;99.10
7046;DHT22;3564;53.326;10.356;2023-04-29T07:46:10;13.90;98.80
7046;DHT22;3564;53.326;10.356;2023-04-29T07:48:37;14.00;98.80
7046;DHT22;3564;53.326;10.356;2023-04-29T07:51:04;14.00;98.90
7046;DHT22;3564;53.326;10.356;2023-04-29T07:53:29;14.00;98.10
7046;DHT22;3564;53.326;10.356;2023-04-29T07:55:55;14.10;98.10
7046;DHT22;3564;53.326;10.356;2023-04-29T07:58:21;14.10;97.90
7046;DHT22;3564;53.326;10.356;2023-04-29T08:00:46;14.10;98.00
7046;DHT22;3564;53.326;10.356;2023-04-29T08:03:12;14.20;97.90
7046;DHT22;3564;53.326;10.356;2023-04-29T08:05:38;14.20;98.10
7046;DHT22;3564;53.326;10.356;2023-04-29T08:08:04;14.30;98.00
7046;DHT22;3564;53.326;10.356;2023-04-29T08:10:30;14.40;97.70
7046;DHT22;3564;53.326;10.356;2023-04-29T08:12:56;14.40;97.50
7046;DHT22;3564;53.326;10.356;2023-04-29T08:15:22;14.50;97.20
7046;DHT22;3564;53.326;10.356;2023-04-29T08:17:48;14.50;96.50
7046;DHT22;3564;53.326;10.356;2023-04-29T08:20:15;14.50;96.60
7046;DHT22;3564;53.326;10.356;2023-04-29T08:22:41;14.60;96.40
7046;DHT22;3564;53.326;10.356;2023-04-29T08:25:07;14.60;96.30
7046;DHT22;3564;53.326;10.356;2023-04-29T08:27:33;14.70;96.60
7046;DHT22;3564;53.326;10.356;2023-04-29T08:29:58;14.70;96.50
7046;DHT22;3564;53.326;10.356;2023-04-29T08:32:24;14.70;96.20
7046;DHT22;3564;53.326;10.356;2023-04-29T08:34:51;14.80;96.20
7046;DHT22;3564;53.326;10.356;2023-04-29T08:37:17;14.80;96.40
7046;DHT22;3564;53.326;10.356;2023-04-29T08:39:42;14.90;96.10
7046;DHT22;3564;53.326;10.356;2023-04-29T08:42:11;14.90;96.20
7046;DHT22;3564;53.326;10.356;2023-04-29T08:44:37;15.00;96.00
7046;DHT22;3564;53.326;10.356;2023-04-29T08:47:05;15.00;96.00
7046;DHT22;3564;53.326;10.356;2023-04-29T08:49:31;15.20;96.00
7046;DHT22;3564;53.326;10.356;2023-04-29T08:51:58;15.20;95.40
7046;DHT22;3564;53.326;10.356;2023-04-29T08:54:25;15.20;95.40
7046;DHT22;3564;53.326;10.356;2023-04-29T08:56:51;15.30;95.60
7046;DHT22;3564;53.326;10.356;2023-04-29T08:59:18;15.40;95.50
7046;DHT22;3564;53.326;10.356;2023-04-29T09:01:46;15.50;95.40
7046;DHT22;3564;53.326;10.356;2023-04-29T09:04:27;15.60;94.90
7046;DHT22;3564;53.326;10.356;2023-04-29T09:06:58;15.60;93.80
7046;DHT22;3564;53.326;10.356;2023-04-29T09:09:25;15.70;94.00
7046;DHT22;3564;53.326;10.356;2023-04-29T09:11:51;15.70;94.00
7046;DHT22;3564;53.326;10.356;2023-04-29T09:14:17;15.80;94.30
7046;DHT22;3564;53.326;10.356;2023-04-29T09:16:46;15.90;94.40
7046;DHT22;3564;53.326;10.356;2023-04-29T09:19:28;16.00;94.20
7046;DHT22;3564;53.326;10.356;2023-04-29T09:21:55;16.10;94.10
7046;DHT22;3564;53.326;10.356;2023-04-29T09:24:28;16.20;93.70
7046;DHT22;3564;53.326;10.356;2023-04-29T09:26:54;16.20;93.60
7046;DHT22;3564;53.326;10.356;2023-04-29T09:29:21;16.30;93.70
7046;DHT22;3564;53.326;10.356;2023-04-29T09:31:48;16.40;93.90
7046;DHT22;3564;53.326;10.356;2023-04-29T09:34:14;16.40;93.60
7046;DHT22;3564;53.326;10.356;2023-04-29T09:36:44;16.50;93.60
7046;DHT22;3564;53.326;10.356;2023-04-29T09:39:18;16.50;93.40
7046;DHT22;3564;53.326;10.356;2023-04-29T09:44:20;16.70;93.10
7046;DHT22;3564;53.326;10.356;2023-04-29T09:47:01;16.80;93.10
7046;DHT22;3564;53.326;10.356;2023-04-29T09:49:39;16.80;92.60
7046;DHT22;3564;53.326;10.356;2023-04-29T09:52:08;16.90;93.00
7046;DHT22;3564;53.326;10.356;2023-04-29T09:54:35;17.00;93.20
7046;DHT22;3564;53.326;10.356;2023-04-29T09:57:02;17.00;92.70
7046;DHT22;3564;53.326;10.356;2023-04-29T09:59:31;17.10;92.80
7046;DHT22;3564;53.326;10.356;2023-04-29T10:01:59;17.20;92.60
7046;DHT22;3564;53.326;10.356;2023-04-29T10:04:26;17.20;91.80
7046;DHT22;3564;53.326;10.356;2023-04-29T10:06:54;17.30;92.10
7046;DHT22;3564;53.326;10.356;2023-04-29T10:09:21;17.30;92.50
7046;DHT22;3564;53.326;10.356;2023-04-29T10:11:52;17.40;92.00
7046;DHT22;3564;53.326;10.356;2023-04-29T10:14:22;17.50;92.70
7046;DHT22;3564;53.326;10.356;2023-04-29T10:16:58;17.60;92.40
7046;DHT22;3564;53.326;10.356;2023-04-29T10:21:54;17.80;92.20
7046;DHT22;3564;53.326;10.356;2023-04-29T10:24:25;17.90;92.50
7046;DHT22;3564;53.326;10.356;2023-04-29T10:26:52;18.00;92.10
7046;DHT22;3564;53.326;10.356;2023-04-29T10:29:21;18.00;91.80
7046;DHT22;3564;53.326;10.356;2023-04-29T10:31:47;18.10;91.90
7046;DHT22;3564;53.326;10.356;2023-04-29T10:34:17;18.20;91.30
7046;DHT22;3564;53.326;10.356;2023-04-29T10:36:43;18.20;91.50
7046;DHT22;3564;53.326;10.356;2023-04-29T10:39:22;18.20;91.70
7046;DHT22;3564;53.326;10.356;2023-04-29T10:42:01;18.20;90.90
7046;DHT22;3564;53.326;10.356;2023-04-29T10:44:28;18.20;91.40
7046;DHT22;3564;53.326;10.356;2023-04-29T10:47:19;18.30;91.70
7046;DHT22;3564;53.326;10.356;2023-04-29T10:50:01;18.40;92.00
7046;DHT22;3564;53.326;10.356;2023-04-29T10:52:28;18.40;91.50
7046;DHT22;3564;53.326;10.356;2023-04-29T10:55:03;18.40;91.00
7046;DHT22;3564;53.326;10.356;2023-04-29T10:57:29;18.40;91.10
7046;DHT22;3564;53.326;10.356;2023-04-29T10:59:55;18.50;91.20
7046;DHT22;3564;53.326;10.356;2023-04-29T11:02:20;18.50;91.60
7046;DHT22;3564;53.326;10.356;2023-04-29T11:05:05;18.50;91.60
7046;DHT22;3564;53.326;10.356;2023-04-29T11:07:31;18.60;91.00
7046;DHT22;3564;53.326;10.356;2023-04-29T11:09:57;18.70;91.30
7046;DHT22;3564;53.326;10.356;2023-04-29T11:12:22;18.80;90.90
7046;DHT22;3564;53.326;10.356;2023-04-29T11:14:50;18.80;90.50
7046;DHT22;3564;53.326;10.356;2023-04-29T11:17:17;18.80;90.70
7046;DHT22;3564;53.326;10.356;2023-04-29T11:19:46;18.80;89.60
7046;DHT22;3564;53.326;10.356;2023-04-29T11:24:58;18.90;90.00
7046;DHT22;3564;53.326;10.356;2023-04-29T11:27:32;18.90;89.20
7046;DHT22;3564;53.326;10.356;2023-04-29T11:30:00;18.90;88.80
7046;DHT22;3564;53.326;10.356;2023-04-29T11:32:43;19.00;90.10
7046;DHT22;3564;53.326;10.356;2023-04-29T11:35:14;18.90;88.60
7046;DHT22;3564;53.326;10.356;2023-04-29T11:37:41;18.90;88.30
7046;DHT22;3564;53.326;10.356;2023-04-29T11:40:07;18.90;88.40
7046;DHT22;3564;53.326;10.356;2023-04-29T11:42:45;18.80;88.20
7046;DHT22;3564;53.326;10.356;2023-04-29T11:45:11;18.90;88.50
7046;DHT22;3564;53.326;10.356;2023-04-29T11:47:36;18.90;86.90
7046;DHT22;3564;53.326;10.356;2023-04-29T11:50:08;18.90;86.00
7046;DHT22;3564;53.326;10.356;2023-04-29T11:52:35;18.90;86.10
7046;DHT22;3564;53.326;10.356;2023-04-29T11:55:07;18.90;87.50
7046;DHT22;3564;53.326;10.356;2023-04-29T11:57:33;19.00;87.00
7046;DHT22;3564;53.326;10.356;2023-04-29T11:59:58;19.10;86.80
7046;DHT22;3564;53.326;10.356;2023-04-29T12:02:31;19.10;85.40
7046;DHT22;3564;53.326;10.356;2023-04-29T12:04:57;19.20;86.00
7046;DHT22;3564;53.326;10.356;2023-04-29T12:07:25;19.30;85.60
7046;DHT22;3564;53.326;10.356;2023-04-29T12:09:51;19.40;86.50
7046;DHT22;3564;53.326;10.356;2023-04-29T12:12:16;19.50;85.60
7046;DHT22;3564;53.326;10.356;2023-04-29T12:14:43;19.50;85.20
7046;DHT22;3564;53.326;10.356;2023-04-29T12:17:10;19.50;84.90
7046;DHT22;3564;53.326;10.356;2023-04-29T12:19:36;19.60;85.90
7046;DHT22;3564;53.326;10.356;2023-04-29T12:22:04;19.60;83.30
7046;DHT22;3564;53.326;10.356;2023-04-29T12:24:40;19.50;84.00
7046;DHT22;3564;53.326;10.356;2023-04-29T12:27:10;19.50;84.50
7046;DHT22;3564;53.326;10.356;2023-04-29T12:29:41;19.60;83.90
7046;DHT22;3564;53.326;10.356;2023-04-29T12:32:12;19.60;82.90
7046;DHT22;3564;53.326;10.356;2023-04-29T12:34:41;19.60;83.70
7046;DHT22;3564;53.326;10.356;2023-04-29T12:37:08;19.60;84.20
7046;DHT22;3564;53.326;10.356;2023-04-29T12:39:35;19.60;82.90
7046;DHT22;3564;53.326;10.356;2023-04-29T12:42:00;19.60;82.90
7046;DHT22;3564;53.326;10.356;2023-04-29T12:44:34;19.60;82.60
7046;DHT22;3564;53.326;10.356;2023-04-29T12:47:07;19.60;82.90
7046;DHT22;3564;53.326;10.356;2023-04-29T12:49:33;19.50;84.20
7046;DHT22;3564;53.326;10.356;2023-04-29T12:51:59;19.50;84.60
7046;DHT22;3564;53.326;10.356;2023-04-29T12:54:25;19.50;83.20
7046;DHT22;3564;53.326;10.356;2023-04-29T12:56:51;19.50;83.00
7046;DHT22;3564;53.326;10.356;2023-04-29T12:59:16;19.50;83.30
7046;DHT22;3564;53.326;10.356;2023-04-29T13:01:42;19.50;84.10
7046;DHT22;3564;53.326;10.356;2023-04-29T13:04:07;19.50;84.00
7046;DHT22;3564;53.326;10.356;2023-04-29T13:06:35;19.50;84.50
7046;DHT22;3564;53.326;10.356;2023-04-29T13:09:05;19.50;85.70
7046;DHT22;3564;53.326;10.356;2023-04-29T13:11:31;19.50;84.30
7046;DHT22;3564;53.326;10.356;2023-04-29T13:13:56;19.50;84.00
7046;DHT22;3564;53.326;10.356;2023-04-29T13:16:22;19.60;83.40
7046;DHT22;3564;53.326;10.356;2023-04-29T13:18:49;19.50;83.60
7046;DHT22;3564;53.326;10.356;2023-04-29T13:21:14;19.50;83.40
7046;DHT22;3564;53.326;10.356;2023-04-29T13:23:41;19.50;83.60
7046;DHT22;3564;53.326;10.356;2023-04-29T13:26:06;19.60;84.10
7046;DHT22;3564;53.326;10.356;2023-04-29T13:28:33;19.60;83.00
7046;DHT22;3564;53.326;10.356;2023-04-29T13:30:59;19.50;83.40
7046;DHT22;3564;53.326;10.356;2023-04-29T13:33:24;19.50;83.80
7046;DHT22;3564;53.326;10.356;2023-04-29T13:35:53;19.50;83.60
7046;DHT22;3564;53.326;10.356;2023-04-29T13:38:18;19.50;82.40
7046;DHT22;3564;53.326;10.356;2023-04-29T13:40:44;19.50;83.50
7046;DHT22;3564;53.326;10.356;2023-04-29T13:43:10;19.50;82.10
7046;DHT22;3564;53.326;10.356;2023-04-29T13:45:35;19.60;83.40
7046;DHT22;3564;53.326;10.356;2023-04-29T13:48:01;19.60;84.10
7046;DHT22;3564;53.326;10.356;2023-04-29T13:50:27;19.60;83.90
7046;DHT22;3564;53.326;10.356;2023-04-29T13:52:52;19.70;83.60
7046;DHT22;3564;53.326;10.356;2023-04-29T13:55:18;19.80;83.50
7046;DHT22;3564;53.326;10.356;2023-04-29T13:57:45;19.90;82.20
7046;DHT22;3564;53.326;10.356;2023-04-29T14:00:12;20.00;81.70
7046;DHT22;3564;53.326;10.356;2023-04-29T14:02:38;20.10;81.80
7046;DHT22;3564;53.326;10.356;2023-04-29T14:05:03;20.10;82.20
7046;DHT22;3564;53.326;10.356;2023-04-29T14:07:29;20.20;82.90
7046;DHT22;3564;53.326;10.356;2023-04-29T14:09:54;20.30;82.90
7046;DHT22;3564;53.326;10.356;2023-04-29T14:12:20;20.60;81.70
7046;DHT22;3564;53.326;10.356;2023-04-29T14:14:46;20.80;80.50
7046;DHT22;3564;53.326;10.356;2023-04-29T14:17:11;20.90;79.30
7046;DHT22;3564;53.326;10.356;2023-04-29T14:19:37;21.10;77.80
7046;DHT22;3564;53.326;10.356;2023-04-29T14:22:02;21.30;77.70
7046;DHT22;3564;53.326;10.356;2023-04-29T14:24:28;21.50;77.50
7046;DHT22;3564;53.326;10.356;2023-04-29T14:26:53;21.80;76.90
7046;DHT22;3564;53.326;10.356;2023-04-29T14:29:19;21.90;75.90
7046;DHT22;3564;53.326;10.356;2023-04-29T14:31:45;22.00;74.50
7046;DHT22;3564;53.326;10.356;2023-04-29T14:34:10;22.10;74.30
7046;DHT22;3564;53.326;10.356;2023-04-29T14:36:36;22.30;75.30
7046;DHT22;3564;53.326;10.356;2023-04-29T14:39:01;22.50;74.50
7046;DHT22;3564;53.326;10.356;2023-04-29T14:41:28;22.70;73.80
7046;DHT22;3564;53.326;10.356;2023-04-29T14:43:54;22.80;73.10
7046;DHT22;3564;53.326;10.356;2023-04-29T14:46:20;22.70;71.40
7046;DHT22;3564;53.326;10.356;2023-04-29T14:48:46;22.80;72.40
7046;DHT22;3564;53.326;10.356;2023-04-29T14:51:12;22.70;70.80
7046;DHT22;3564;53.326;10.356;2023-04-29T14:53:38;22.60;71.30
7046;DHT22;3564;53.326;10.356;2023-04-29T14:56:03;22.60;71.00
7046;DHT22;3564;53.326;10.356;2023-04-29T14:58:29;22.50;72.00
7046;DHT22;3564;53.326;10.356;2023-04-29T15:00:55;22.50;72.70
7046;DHT22;3564;53.326;10.356;2023-04-29T15:03:25;22.60;73.40
7046;DHT22;3564;53.326;10.356;2023-04-29T15:05:50;22.70;72.30
7046;DHT22;3564;53.326;10.356;2023-04-29T15:08:17;22.60;72.70
7046;DHT22;3564;53.326;10.356;2023-04-29T15:10:46;22.60;73.90
7046;DHT22;3564;53.326;10.356;2023-04-29T15:13:12;22.50;73.30
7046;DHT22;3564;53.326;10.356;2023-04-29T15:15:37;22.50;73.20
7046;DHT22;3564;53.326;10.356;2023-04-29T15:18:03;22.50;73.40
7046;DHT22;3564;53.326;10.356;2023-04-29T15:20:30;22.40;72.90
7046;DHT22;3564;53.326;10.356;2023-04-29T15:22:56;22.50;72.80
7046;DHT22;3564;53.326;10.356;2023-04-29T15:25:23;22.50;73.30
7046;DHT22;3564;53.326;10.356;2023-04-29T15:27:49;22.50;72.70
7046;DHT22;3564;53.326;10.356;2023-04-29T15:30:14;22.50;72.30
7046;DHT22;3564;53.326;10.356;2023-04-29T15:32:42;22.50;72.30
7046;DHT22;3564;53.326;10.356;2023-04-29T15:35:08;22.40;72.20
7046;DHT22;3564;53.326;10.356;2023-04-29T15:37:33;22.40;70.90
7046;DHT22;3564;53.326;10.356;2023-04-29T15:39:59;22.30;71.60
7046;DHT22;3564;53.326;10.356;2023-04-29T15:42:26;22.30;71.60
7046;DHT22;3564;53.326;10.356;2023-04-29T15:44:51;22.30;72.10
7046;DHT22;3564;53.326;10.356;2023-04-29T15:47:17;22.40;71.80
7046;DHT22;3564;53.326;10.356;2023-04-29T15:49:43;22.50;72.80
7046;DHT22;3564;53.326;10.356;2023-04-29T15:52:09;23.10;71.90
7046;DHT22;3564;53.326;10.356;2023-04-29T15:54:35;24.10;73.10
7046;DHT22;3564;53.326;10.356;2023-04-29T15:57:01;25.10;71.10
7046;DHT22;3564;53.326;10.356;2023-04-29T15:59:31;25.90;70.00
7046;DHT22;3564;53.326;10.356;2023-04-29T16:01:56;26.70;69.20
7046;DHT22;3564;53.326;10.356;2023-04-29T16:04:22;27.40;68.10